sensor_id;sensor_type;location;lat;lon;timestamp;temperature;humidity
44731;DHT22;30458;47.448;19.032;2023-12-20T00:01:51;1.50;99.90
44731;DHT22;30458;47.448;19.032;2023-12-20T00:11:54;1.50;99.90
44731;DHT22;30458;47.448;19.032;2023-12-20T00:22:00;1.40;99.90
44731;DHT22;30458;47.448;19.032;2023-12-20T00:32:05;1.60;99.90
44731;DHT22;30458;47.448;19.032;2023-12-20T00:42:06;1.60;99.90
44731;DHT22;30458;47.448;19.032;2023-12-20T00:52:07;1.70;99.90
44731;DHT22;30458;47.448;19.032;2023-12-20T01:02:08;1.90;99.90
44731;DHT22;30458;47.448;19.032;2023-12-20T01:12:12;1.90;99.90
44731;DHT22;30458;47.448;19.032;2023-12-20T01:22:15;1.80;99.90
44731;DHT22;30458;47.448;19.032;2023-12-20T01:32:16;1.80;99.90
44731;DHT22;30458;47.448;19.032;2023-12-20T01:42:18;1.80;99.90
44731;DHT22;30458;47.448;19.032;2023-12-20T01:52:20;1.80;99.90
44731;DHT22;30458;47.448;19.032;2023-12-20T02:02:23;1.80;99.90
44731;DHT22;30458;47.448;19.032;2023-12-20T02:12:24;1.80;99.90
44731;DHT22;30458;47.448;19.032;2023-12-20T02:22:27;1.80;99.90
44731;DHT22;30458;47.448;19.032;2023-12-20T02:32:28;1.80;99.90
44731;DHT22;30458;47.448;19.032;2023-12-20T02:42:29;1.80;99.90
44731;DHT22;30458;47.448;19.032;2023-12-20T02:52:30;1.70;99.90
44731;DHT22;30458;47.448;19.032;2023-12-20T03:02:33;1.80;99.90
44731;DHT22;30458;47.448;19.032;2023-12-20T03:12:34;1.70;99.90
44731;DHT22;30458;47.448;19.032;2023-12-20T03:22:35;1.70;99.90
44731;DHT22;30458;47.448;19.032;2023-12-20T03:32:37;1.50;99.90
44731;DHT22;30458;47.448;19.032;2023-12-20T03:42:40;1.60;99.90
44731;DHT22;30458;47.448;19.032;2023-12-20T03:52:44;1.70;99.90
44731;DHT22;30458;47.448;19.032;2023-12-20T04:02:47;1.90;99.90
44731;DHT22;30458;47.448;19.032;2023-12-20T04:12:48;1.90;99.90
44731;DHT22;30458;47.448;19.032;2023-12-20T04:22:48;1.80;99.90
44731;DHT22;30458;47.448;19.032;2023-12-20T04:32:49;1.90;99.90
44731;DHT22;30458;47.448;19.032;2023-12-20T04:42:52;1.60;99.90
44731;DHT22;30458;47.448;19.032;2023-12-20T04:52:56;1.50;99.90
44731;DHT22;30458;47.448;19.032;2023-12-20T05:02:57;1.60;99.90
44731;DHT22;30458;47.448;19.032;2023-12-20T05:13:00;1.50;99.90
44731;DHT22;30458;47.448;19.032;2023-12-20T05:23:03;1.80;99.90
44731;DHT22;30458;47.448;19.032;2023-12-20T05:33:04;1.90;99.90
44731;DHT22;30458;47.448;19.032;2023-12-20T05:43:07;1.90;99.90
44731;DHT22;30458;47.448;19.032;2023-12-20T05:53:07;2.00;99.90
44731;DHT22;30458;47.448;19.032;2023-12-20T06:03:08;1.90;99.90
44731;DHT22;30458;47.448;19.032;2023-12-20T06:13:09;2.00;99.90
44731;DHT22;30458;47.448;19.032;2023-12-20T06:23:12;2.20;99.90
44731;DHT22;30458;47.448;19.032;2023-12-20T06:33:15;2.00;99.90
44731;DHT22;30458;47.448;19.032;2023-12-20T06:43:20;2.00;99.90
44731;DHT22;30458;47.448;19.032;2023-12-20T06:53:23;1.40;99.90
44731;DHT22;30458;47.448;19.032;2023-12-20T07:03:27;1.60;99.90
44731;DHT22;30458;47.448;19.032;2023-12-20T07:13:28;1.30;99.90
44731;DHT22;30458;47.448;19.032;2023-12-20T07:23:29;1.50;99.90
44731;DHT22;30458;47.448;19.032;2023-12-20T07:33:29;1.60;99.90
44731;DHT22;30458;47.448;19.032;2023-12-20T07:43:33;1.70;99.90
44731;DHT22;30458;47.448;19.032;2023-12-20T07:53:34;2.00;99.90
44731;DHT22;30458;47.448;19.032;2023-12-20T08:03:36;2.00;99.90
44731;DHT22;30458;47.448;19.032;2023-12-20T08:13:38;2.10;99.90
44731;DHT22;30458;47.448;19.032;2023-12-20T08:23:40;2.40;99.90
44731;DHT22;30458;47.448;19.032;2023-12-20T08:33:40;2.40;99.90
44731;DHT22;30458;47.448;19.032;2023-12-20T08:43:41;2.50;99.90
44731;DHT22;30458;47.448;19.032;2023-12-20T08:53:43;2.50;99.90
44731;DHT22;30458;47.448;19.032;2023-12-20T09:03:47;2.80;99.90
44731;DHT22;30458;47.448;19.032;2023-12-20T09:13:48;3.00;99.90
44731;DHT22;30458;47.448;19.032;2023-12-20T09:23:51;3.10;99.90
44731;DHT22;30458;47.448;19.032;2023-12-20T09:33:55;3.10;99.90
44731;DHT22;30458;47.448;19.032;2023-12-20T09:43:58;2.90;99.90
44731;DHT22;30458;47.448;19.032;2023-12-20T09:54:02;3.20;99.90
44731;DHT22;30458;47.448;19.032;2023-12-20T10:04:08;3.30;99.90
44731;DHT22;30458;47.448;19.032;2023-12-20T10:14:13;3.30;99.90
44731;DHT22;30458;47.448;19.032;2023-12-20T10:24:18;3.40;99.90
44731;DHT22;30458;47.448;19.032;2023-12-20T10:34:21;3.50;99.90
44731;DHT22;30458;47.448;19.032;2023-12-20T10:44:27;4.20;99.90
44731;DHT22;30458;47.448;19.032;2023-12-20T10:54:30;4.40;99.90
44731;DHT22;30458;47.448;19.032;2023-12-20T11:24:47;3.70;99.90
44731;DHT22;30458;47.448;19.032;2023-12-20T11:34:50;3.20;99.90
44731;DHT22;30458;47.448;19.032;2023-12-20T11:44:53;3.30;99.90
44731;DHT22;30458;47.448;19.032;2023-12-20T11:54:54;3.40;99.90
44731;DHT22;30458;47.448;19.032;2023-12-20T12:04:57;3.80;99.90
44731;DHT22;30458;47.448;19.032;2023-12-20T12:14:59;4.60;99.90
44731;DHT22;30458;47.448;19.032;2023-12-20T12:25:09;5.40;99.90
44731;DHT22;30458;47.448;19.032;2023-12-20T12:35:11;6.80;99.90
44731;DHT22;30458;47.448;19.032;2023-12-20T12:45:11;7.70;99.90
44731;DHT22;30458;47.448;19.032;2023-12-20T12:55:12;7.80;99.90
44731;DHT22;30458;47.448;19.032;2023-12-20T13:05:13;7.80;99.90
44731;DHT22;30458;47.448;19.032;2023-12-20T13:15:14;7.80;99.90
44731;DHT22;30458;47.448;19.032;2023-12-20T13:25:15;7.60;99.90
44731;DHT22;30458;47.448;19.032;2023-12-20T13:35:18;7.50;99.90
44731;DHT22;30458;47.448;19.032;2023-12-20T13:45:21;7.40;99.90
44731;DHT22;30458;47.448;19.032;2023-12-20T13:55:24;7.30;99.90
44731;DHT22;30458;47.448;19.032;2023-12-20T14:05:25;7.10;99.90
44731;DHT22;30458;47.448;19.032;2023-12-20T14:15:28;7.10;99.90
44731;DHT22;30458;47.448;19.032;2023-12-20T14:25:28;6.90;99.90
44731;DHT22;30458;47.448;19.032;2023-12-20T14:35:32;6.80;99.90
44731;DHT22;30458;47.448;19.032;2023-12-20T14:45:33;6.90;99.90
44731;DHT22;30458;47.448;19.032;2023-12-20T14:55:34;6.70;99.90
44731;DHT22;30458;47.448;19.032;2023-12-20T15:05:34;6.50;99.90
44731;DHT22;30458;47.448;19.032;2023-12-20T15:15:36;6.40;99.90
44731;DHT22;30458;47.448;19.032;2023-12-20T15:25:38;6.50;99.90
44731;DHT22;30458;47.448;19.032;2023-12-20T15:35:39;6.60;99.90
44731;DHT22;30458;47.448;19.032;2023-12-20T15:45:39;6.80;99.90
44731;DHT22;30458;47.448;19.032;2023-12-20T15:55:42;7.00;99.90
44731;DHT22;30458;47.448;19.032;2023-12-20T16:05:45;7.00;99.90
44731;DHT22;30458;47.448;19.032;2023-12-20T16:15:46;6.90;99.90
44731;DHT22;30458;47.448;19.032;2023-12-20T16:25:50;6.80;99.90
44731;DHT22;30458;47.448;19.032;2023-12-20T16:35:50;6.70;99.90
44731;DHT22;30458;47.448;19.032;2023-12-20T16:45:54;6.80;99.90
44731;DHT22;30458;47.448;19.032;2023-12-20T16:55:57;6.70;99.90
44731;DHT22;30458;47.448;19.032;2023-12-20T17:06:02;6.60;99.90
44731;DHT22;30458;47.448;19.032;2023-12-20T17:16:05;6.50;99.90
44731;DHT22;30458;47.448;19.032;2023-12-20T17:26:07;6.40;99.90
44731;DHT22;30458;47.448;19.032;2023-12-20T17:36:07;6.50;99.90
44731;DHT22;30458;47.448;19.032;2023-12-20T17:46:17;6.50;99.90
44731;DHT22;30458;47.448;19.032;2023-12-20T17:56:22;6.50;99.90
44731;DHT22;30458;47.448;19.032;2023-12-20T18:06:27;6.20;99.90
44731;DHT22;30458;47.448;19.032;2023-12-20T18:16:28;5.90;99.90
44731;DHT22;30458;47.448;19.032;2023-12-20T18:26:31;5.80;99.90
44731;DHT22;30458;47.448;19.032;2023-12-20T18:36:36;5.60;99.90
44731;DHT22;30458;47.448;19.032;2023-12-20T18:46:44;5.40;99.90
44731;DHT22;30458;47.448;19.032;2023-12-20T18:56:47;5.30;99.90
44731;DHT22;30458;47.448;19.032;2023-12-20T19:06:53;5.30;99.90
44731;DHT22;30458;47.448;19.032;2023-12-20T19:17:03;5.20;99.90
44731;DHT22;30458;47.448;19.032;2023-12-20T19:27:04;5.30;99.90
44731;DHT22;30458;47.448;19.032;2023-12-20T19:37:06;5.10;99.90
44731;DHT22;30458;47.448;19.032;2023-12-20T19:47:09;4.90;99.90
44731;DHT22;30458;47.448;19.032;2023-12-20T19:57:10;4.50;99.90
44731;DHT22;30458;47.448;19.032;2023-12-20T20:07:10;4.60;99.90
44731;DHT22;30458;47.448;19.032;2023-12-20T20:17:17;4.60;99.90
44731;DHT22;30458;47.448;19.032;2023-12-20T20:27:18;4.80;99.90
44731;DHT22;30458;47.448;19.032;2023-12-20T20:37:22;4.70;99.90
44731;DHT22;30458;47.448;19.032;2023-12-20T20:47:23;4.70;99.90
44731;DHT22;30458;47.448;19.032;2023-12-20T20:57:23;4.70;99.90
44731;DHT22;30458;47.448;19.032;2023-12-20T21:07:32;4.60;99.90
44731;DHT22;30458;47.448;19.032;2023-12-20T21:17:33;4.70;99.90
44731;DHT22;30458;47.448;19.032;2023-12-20T21:27:35;4.70;99.90
44731;DHT22;30458;47.448;19.032;2023-12-20T21:37:37;4.70;99.90
44731;DHT22;30458;47.448;19.032;2023-12-20T21:47:38;4.70;99.90
44731;DHT22;30458;47.448;19.032;2023-12-20T21:57:38;4.70;99.90
44731;DHT22;30458;47.448;19.032;2023-12-20T22:07:39;4.70;99.90
44731;DHT22;30458;47.448;19.032;2023-12-20T22:17:42;4.80;99.90
44731;DHT22;30458;47.448;19.032;2023-12-20T22:27:46;4.90;99.90
44731;DHT22;30458;47.448;19.032;2023-12-20T22:37:47;4.80;99.90
44731;DHT22;30458;47.448;19.032;2023-12-20T22:47:47;4.80;99.90
44731;DHT22;30458;47.448;19.032;2023-12-20T22:57:48;4.90;99.90
44731;DHT22;30458;47.448;19.032;2023-12-20T23:07:52;4.90;99.90
44731;DHT22;30458;47.448;19.032;2023-12-20T23:17:53;4.90;99.90
44731;DHT22;30458;47.448;19.032;2023-12-20T23:27:56;5.00;99.90
44731;DHT22;30458;47.448;19.032;2023-12-20T23:37:59;5.00;99.90
44731;DHT22;30458;47.448;19.032;2023-12-20T23:48:05;5.10;99.90
44731;DHT22;30458;47.448;19.032;2023-12-20T23:58:06;5.20;99.90
